sensor_id;sensor_type;location;lat;lon;timestamp;temperature;humidity
26589;DHT22;14235;48.532;8.722;2023-05-15T00:01:12;11.80;99.90
26589;DHT22;14235;48.532;8.722;2023-05-15T00:03:38;11.80;99.90
26589;DHT22;14235;48.532;8.722;2023-05-15T00:06:04;11.70;99.90
26589;DHT22;14235;48.532;8.722;2023-05-15T00:08:30;12.00;99.90
26589;DHT22;14235;48.532;8.722;2023-05-15T00:10:55;11.80;99.90
26589;DHT22;14235;48.532;8.722;2023-05-15T00:13:21;11.80;99.90
26589;DHT22;14235;48.532;8.722;2023-05-15T00:15:47;11.80;99.90
26589;DHT22;14235;48.532;8.722;2023-05-15T00:18:12;11.80;99.90
26589;DHT22;14235;48.532;8.722;2023-05-15T00:20:38;11.90;99.90
26589;DHT22;14235;48.532;8.722;2023-05-15T00:23:03;11.80;99.90
26589;DHT22;14235;48.532;8.722;2023-05-15T00:25:29;11.80;99.90
26589;DHT22;14235;48.532;8.722;2023-05-15T00:27:55;11.70;99.90
26589;DHT22;14235;48.532;8.722;2023-05-15T00:30:20;11.70;99.90
26589;DHT22;14235;48.532;8.722;2023-05-15T00:32:46;11.90;99.90
26589;DHT22;14235;48.532;8.722;2023-05-15T00:35:11;11.70;99.90
26589;DHT22;14235;48.532;8.722;2023-05-15T00:37:37;11.80;99.90
26589;DHT22;14235;48.532;8.722;2023-05-15T00:40:03;11.70;99.90
26589;DHT22;14235;48.532;8.722;2023-05-15T00:42:29;11.70;99.90
26589;DHT22;14235;48.532;8.722;2023-05-15T00:44:56;11.80;99.90
26589;DHT22;14235;48.532;8.722;2023-05-15T00:47:23;11.70;99.90
26589;DHT22;14235;48.532;8.722;2023-05-15T00:49:51;11.60;99.90
26589;DHT22;14235;48.532;8.722;2023-05-15T00:52:17;11.60;99.90
26589;DHT22;14235;48.532;8.722;2023-05-15T00:54:43;11.60;99.90
26589;DHT22;14235;48.532;8.722;2023-05-15T00:57:09;11.60;99.90
26589;DHT22;14235;48.532;8.722;2023-05-15T00:59:38;11.50;99.90
26589;DHT22;14235;48.532;8.722;2023-05-15T01:02:04;11.60;99.90
26589;DHT22;14235;48.532;8.722;2023-05-15T01:04:30;11.50;99.90
26589;DHT22;14235;48.532;8.722;2023-05-15T01:06:56;11.40;99.90
26589;DHT22;14235;48.532;8.722;2023-05-15T01:09:25;11.60;99.90
26589;DHT22;14235;48.532;8.722;2023-05-15T01:11:53;11.40;99.90
26589;DHT22;14235;48.532;8.722;2023-05-15T01:14:19;11.40;99.90
26589;DHT22;14235;48.532;8.722;2023-05-15T01:16:45;11.40;99.90
26589;DHT22;14235;48.532;8.722;2023-05-15T01:19:11;11.50;99.90
26589;DHT22;14235;48.532;8.722;2023-05-15T01:21:43;11.50;99.90
26589;DHT22;14235;48.532;8.722;2023-05-15T01:35:11;11.60;99.90
26589;DHT22;14235;48.532;8.722;2023-05-15T01:37:43;11.40;99.90
26589;DHT22;14235;48.532;8.722;2023-05-15T01:40:11;11.40;99.90
26589;DHT22;14235;48.532;8.722;2023-05-15T01:42:41;11.40;99.90
26589;DHT22;14235;48.532;8.722;2023-05-15T01:45:10;11.40;99.90
26589;DHT22;14235;48.532;8.722;2023-05-15T01:47:43;11.40;99.90
26589;DHT22;14235;48.532;8.722;2023-05-15T01:50:12;11.50;99.90
26589;DHT22;14235;48.532;8.722;2023-05-15T01:52:41;11.40;99.90
26589;DHT22;14235;48.532;8.722;2023-05-15T01:55:08;11.50;99.90
26589;DHT22;14235;48.532;8.722;2023-05-15T01:57:35;11.30;99.90
26589;DHT22;14235;48.532;8.722;2023-05-15T02:00:02;11.30;99.90
26589;DHT22;14235;48.532;8.722;2023-05-15T02:02:28;11.40;99.90
26589;DHT22;14235;48.532;8.722;2023-05-15T02:04:55;11.30;99.90
26589;DHT22;14235;48.532;8.722;2023-05-15T02:07:22;11.30;99.90
26589;DHT22;14235;48.532;8.722;2023-05-15T02:09:50;11.30;99.90
26589;DHT22;14235;48.532;8.722;2023-05-15T02:12:16;11.40;99.90
26589;DHT22;14235;48.532;8.722;2023-05-15T02:14:42;11.40;99.90
26589;DHT22;14235;48.532;8.722;2023-05-15T02:17:09;11.30;99.90
26589;DHT22;14235;48.532;8.722;2023-05-15T02:19:35;11.30;99.90
26589;DHT22;14235;48.532;8.722;2023-05-15T02:22:00;11.30;99.90
26589;DHT22;14235;48.532;8.722;2023-05-15T02:24:26;11.40;99.90
26589;DHT22;14235;48.532;8.722;2023-05-15T02:27:12;11.40;99.90
26589;DHT22;14235;48.532;8.722;2023-05-15T02:32:42;11.40;99.90
26589;DHT22;14235;48.532;8.722;2023-05-15T02:37:38;11.40;99.90
26589;DHT22;14235;48.532;8.722;2023-05-15T02:40:08;11.30;99.90
26589;DHT22;14235;48.532;8.722;2023-05-15T02:42:35;11.40;99.90
26589;DHT22;14235;48.532;8.722;2023-05-15T02:45:02;11.30;99.90
26589;DHT22;14235;48.532;8.722;2023-05-15T02:47:28;11.30;99.90
26589;DHT22;14235;48.532;8.722;2023-05-15T02:49:55;11.30;99.90
26589;DHT22;14235;48.532;8.722;2023-05-15T02:52:24;11.20;99.90
26589;DHT22;14235;48.532;8.722;2023-05-15T02:54:50;11.20;99.90
26589;DHT22;14235;48.532;8.722;2023-05-15T02:57:15;11.20;99.90
26589;DHT22;14235;48.532;8.722;2023-05-15T02:59:41;11.20;99.90
26589;DHT22;14235;48.532;8.722;2023-05-15T03:02:07;11.20;99.90
26589;DHT22;14235;48.532;8.722;2023-05-15T03:04:32;11.20;99.90
26589;DHT22;14235;48.532;8.722;2023-05-15T03:06:58;11.20;99.90
26589;DHT22;14235;48.532;8.722;2023-05-15T03:09:24;11.20;99.90
26589;DHT22;14235;48.532;8.722;2023-05-15T03:11:49;11.30;99.90
26589;DHT22;14235;48.532;8.722;2023-05-15T03:14:16;11.20;99.90
26589;DHT22;14235;48.532;8.722;2023-05-15T03:16:41;11.30;99.90
26589;DHT22;14235;48.532;8.722;2023-05-15T03:19:07;11.30;99.90
26589;DHT22;14235;48.532;8.722;2023-05-15T03:21:32;11.30;99.90
26589;DHT22;14235;48.532;8.722;2023-05-15T03:23:59;11.40;99.90
26589;DHT22;14235;48.532;8.722;2023-05-15T03:26:25;11.20;99.90
26589;DHT22;14235;48.532;8.722;2023-05-15T03:28:51;11.20;99.90
26589;DHT22;14235;48.532;8.722;2023-05-15T03:31:17;11.20;99.90
26589;DHT22;14235;48.532;8.722;2023-05-15T03:33:43;11.20;99.90
26589;DHT22;14235;48.532;8.722;2023-05-15T03:36:10;11.20;99.90
26589;DHT22;14235;48.532;8.722;2023-05-15T03:38:36;11.10;99.90
26589;DHT22;14235;48.532;8.722;2023-05-15T03:41:01;11.10;99.90
26589;DHT22;14235;48.532;8.722;2023-05-15T03:43:27;11.10;99.90
26589;DHT22;14235;48.532;8.722;2023-05-15T03:45:52;11.10;99.90
26589;DHT22;14235;48.532;8.722;2023-05-15T03:48:18;11.10;99.90
26589;DHT22;14235;48.532;8.722;2023-05-15T03:50:44;11.10;99.90
26589;DHT22;14235;48.532;8.722;2023-05-15T03:53:10;11.10;99.90
26589;DHT22;14235;48.532;8.722;2023-05-15T03:55:35;11.10;99.90
26589;DHT22;14235;48.532;8.722;2023-05-15T03:58:01;11.40;99.90
26589;DHT22;14235;48.532;8.722;2023-05-15T04:00:27;11.20;99.90
26589;DHT22;14235;48.532;8.722;2023-05-15T04:02:52;11.30;99.90
26589;DHT22;14235;48.532;8.722;2023-05-15T04:05:18;11.20;99.90
26589;DHT22;14235;48.532;8.722;2023-05-15T04:07:45;11.30;99.90
26589;DHT22;14235;48.532;8.722;2023-05-15T04:10:11;11.20;99.90
26589;DHT22;14235;48.532;8.722;2023-05-15T04:12:37;11.20;99.90
26589;DHT22;14235;48.532;8.722;2023-05-15T04:15:22;11.20;99.90
26589;DHT22;14235;48.532;8.722;2023-05-15T04:17:50;11.20;99.90
26589;DHT22;14235;48.532;8.722;2023-05-15T04:20:18;11.10;99.90
26589;DHT22;14235;48.532;8.722;2023-05-15T04:22:44;11.10;99.90
26589;DHT22;14235;48.532;8.722;2023-05-15T04:25:11;11.10;99.90
26589;DHT22;14235;48.532;8.722;2023-05-15T04:27:38;11.10;99.90
26589;DHT22;14235;48.532;8.722;2023-05-15T04:30:04;11.00;99.90
26589;DHT22;14235;48.532;8.722;2023-05-15T04:32:30;11.10;99.90
26589;DHT22;14235;48.532;8.722;2023-05-15T04:35:01;11.10;99.90
26589;DHT22;14235;48.532;8.722;2023-05-15T04:37:28;11.10;99.90
26589;DHT22;14235;48.532;8.722;2023-05-15T04:39:53;11.20;99.90
26589;DHT22;14235;48.532;8.722;2023-05-15T04:42:19;11.10;99.90
26589;DHT22;14235;48.532;8.722;2023-05-15T04:44:45;11.10;99.90
26589;DHT22;14235;48.532;8.722;2023-05-15T04:47:11;11.10;99.90
26589;DHT22;14235;48.532;8.722;2023-05-15T04:49:36;11.20;99.90
26589;DHT22;14235;48.532;8.722;2023-05-15T04:52:02;11.40;99.90
26589;DHT22;14235;48.532;8.722;2023-05-15T04:54:28;11.20;99.90
26589;DHT22;14235;48.532;8.722;2023-05-15T04:56:54;11.30;99.90
26589;DHT22;14235;48.532;8.722;2023-05-15T04:59:19;11.10;99.90
26589;DHT22;14235;48.532;8.722;2023-05-15T05:01:45;11.30;99.90
26589;DHT22;14235;48.532;8.722;2023-05-15T05:04:10;11.20;99.90
26589;DHT22;14235;48.532;8.722;2023-05-15T05:06:36;11.20;99.90
26589;DHT22;14235;48.532;8.722;2023-05-15T05:09:01;11.20;99.90
26589;DHT22;14235;48.532;8.722;2023-05-15T05:11:27;11.20;99.90
26589;DHT22;14235;48.532;8.722;2023-05-15T05:13:53;11.20;99.90
26589;DHT22;14235;48.532;8.722;2023-05-15T05:16:19;11.20;99.90
26589;DHT22;14235;48.532;8.722;2023-05-15T05:18:44;11.40;99.90
26589;DHT22;14235;48.532;8.722;2023-05-15T05:21:10;11.30;99.90
26589;DHT22;14235;48.532;8.722;2023-05-15T05:23:35;11.40;99.90
26589;DHT22;14235;48.532;8.722;2023-05-15T05:26:01;11.30;99.90
26589;DHT22;14235;48.532;8.722;2023-05-15T05:28:27;11.40;99.90
26589;DHT22;14235;48.532;8.722;2023-05-15T05:30:52;11.30;99.90
26589;DHT22;14235;48.532;8.722;2023-05-15T05:33:18;11.40;99.90
26589;DHT22;14235;48.532;8.722;2023-05-15T05:35:44;11.30;99.90
26589;DHT22;14235;48.532;8.722;2023-05-15T05:38:09;11.40;99.90
26589;DHT22;14235;48.532;8.722;2023-05-15T05:40:35;11.40;99.90
26589;DHT22;14235;48.532;8.722;2023-05-15T05:43:02;11.60;99.90
26589;DHT22;14235;48.532;8.722;2023-05-15T05:45:29;11.40;99.90
26589;DHT22;14235;48.532;8.722;2023-05-15T05:47:57;11.50;99.90
26589;DHT22;14235;48.532;8.722;2023-05-15T05:50:23;11.80;99.90
26589;DHT22;14235;48.532;8.722;2023-05-15T05:52:49;11.50;99.90
26589;DHT22;14235;48.532;8.722;2023-05-15T05:55:15;11.60;99.90
26589;DHT22;14235;48.532;8.722;2023-05-15T05:57:40;11.60;99.90
26589;DHT22;14235;48.532;8.722;2023-05-15T06:00:06;11.90;99.90
26589;DHT22;14235;48.532;8.722;2023-05-15T06:02:34;11.70;99.90
26589;DHT22;14235;48.532;8.722;2023-05-15T06:05:00;11.90;99.90
26589;DHT22;14235;48.532;8.722;2023-05-15T06:07:25;11.70;99.90
26589;DHT22;14235;48.532;8.722;2023-05-15T06:09:51;11.80;99.90
26589;DHT22;14235;48.532;8.722;2023-05-15T06:12:17;11.80;99.90
26589;DHT22;14235;48.532;8.722;2023-05-15T06:14:42;13.10;99.90
26589;DHT22;14235;48.532;8.722;2023-05-15T06:17:08;11.90;99.90
26589;DHT22;14235;48.532;8.722;2023-05-15T06:19:33;12.00;99.90
26589;DHT22;14235;48.532;8.722;2023-05-15T06:21:59;12.20;99.90
26589;DHT22;14235;48.532;8.722;2023-05-15T06:24:24;12.40;99.90
26589;DHT22;14235;48.532;8.722;2023-05-15T06:26:51;12.20;99.90
26589;DHT22;14235;48.532;8.722;2023-05-15T06:29:16;12.20;99.90
26589;DHT22;14235;48.532;8.722;2023-05-15T06:31:42;12.30;99.90
26589;DHT22;14235;48.532;8.722;2023-05-15T06:34:07;12.40;99.90
26589;DHT22;14235;48.532;8.722;2023-05-15T06:36:33;12.40;99.90
26589;DHT22;14235;48.532;8.722;2023-05-15T06:38:59;12.50;99.90
26589;DHT22;14235;48.532;8.722;2023-05-15T06:41:25;12.40;99.90
26589;DHT22;14235;48.532;8.722;2023-05-15T06:43:50;12.60;99.90
26589;DHT22;14235;48.532;8.722;2023-05-15T06:46:16;12.70;99.90
26589;DHT22;14235;48.532;8.722;2023-05-15T06:48:43;12.60;99.90
26589;DHT22;14235;48.532;8.722;2023-05-15T06:51:09;12.80;99.90
26589;DHT22;14235;48.532;8.722;2023-05-15T06:53:35;12.80;99.90
26589;DHT22;14235;48.532;8.722;2023-05-15T06:56:01;12.80;99.90
26589;DHT22;14235;48.532;8.722;2023-05-15T06:58:26;12.70;99.90
26589;DHT22;14235;48.532;8.722;2023-05-15T07:00:52;12.90;99.90
26589;DHT22;14235;48.532;8.722;2023-05-15T07:03:17;12.80;99.90
26589;DHT22;14235;48.532;8.722;2023-05-15T07:05:44;13.00;99.90
26589;DHT22;14235;48.532;8.722;2023-05-15T07:08:09;12.90;99.90
26589;DHT22;14235;48.532;8.722;2023-05-15T07:10:35;12.90;99.90
26589;DHT22;14235;48.532;8.722;2023-05-15T07:13:00;13.00;99.90
26589;DHT22;14235;48.532;8.722;2023-05-15T07:15:26;13.00;99.90
26589;DHT22;14235;48.532;8.722;2023-05-15T07:17:52;13.10;99.90
26589;DHT22;14235;48.532;8.722;2023-05-15T07:20:17;13.00;99.90
26589;DHT22;14235;48.532;8.722;2023-05-15T07:22:43;13.10;99.90
26589;DHT22;14235;48.532;8.722;2023-05-15T07:25:08;13.00;99.90
26589;DHT22;14235;48.532;8.722;2023-05-15T07:27:34;13.20;99.90
26589;DHT22;14235;48.532;8.722;2023-05-15T07:30:01;13.30;99.90
26589;DHT22;14235;48.532;8.722;2023-05-15T07:32:28;13.20;99.90
26589;DHT22;14235;48.532;8.722;2023-05-15T07:34:54;13.30;99.90
26589;DHT22;14235;48.532;8.722;2023-05-15T07:37:20;13.50;99.90
26589;DHT22;14235;48.532;8.722;2023-05-15T07:39:46;13.60;99.90
26589;DHT22;14235;48.532;8.722;2023-05-15T07:42:11;13.40;99.90
26589;DHT22;14235;48.532;8.722;2023-05-15T07:44:37;13.50;99.90
26589;DHT22;14235;48.532;8.722;2023-05-15T07:47:02;13.70;99.90
26589;DHT22;14235;48.532;8.722;2023-05-15T07:49:28;13.50;99.90
26589;DHT22;14235;48.532;8.722;2023-05-15T07:51:53;13.60;99.90
26589;DHT22;14235;48.532;8.722;2023-05-15T07:54:19;13.80;99.90
26589;DHT22;14235;48.532;8.722;2023-05-15T07:56:45;13.70;99.90
26589;DHT22;14235;48.532;8.722;2023-05-15T07:59:10;13.90;99.90
26589;DHT22;14235;48.532;8.722;2023-05-15T08:01:36;13.90;99.90
26589;DHT22;14235;48.532;8.722;2023-05-15T08:04:05;14.00;99.90
26589;DHT22;14235;48.532;8.722;2023-05-15T08:06:31;14.10;99.90
26589;DHT22;14235;48.532;8.722;2023-05-15T08:08:57;14.20;99.90
26589;DHT22;14235;48.532;8.722;2023-05-15T08:11:23;14.20;99.90
26589;DHT22;14235;48.532;8.722;2023-05-15T08:13:48;14.40;99.90
26589;DHT22;14235;48.532;8.722;2023-05-15T08:16:14;14.40;99.90
26589;DHT22;14235;48.532;8.722;2023-05-15T08:18:39;14.50;99.90
26589;DHT22;14235;48.532;8.722;2023-05-15T08:21:05;14.60;99.90
26589;DHT22;14235;48.532;8.722;2023-05-15T08:23:31;14.50;99.90
26589;DHT22;14235;48.532;8.722;2023-05-15T08:25:56;14.60;99.90
26589;DHT22;14235;48.532;8.722;2023-05-15T08:28:22;14.70;99.90
26589;DHT22;14235;48.532;8.722;2023-05-15T08:30:47;14.60;99.90
26589;DHT22;14235;48.532;8.722;2023-05-15T08:33:13;14.70;99.90
26589;DHT22;14235;48.532;8.722;2023-05-15T08:35:38;14.80;99.90
26589;DHT22;14235;48.532;8.722;2023-05-15T08:38:04;14.70;99.90
26589;DHT22;14235;48.532;8.722;2023-05-15T08:40:29;14.80;99.90
26589;DHT22;14235;48.532;8.722;2023-05-15T08:43:03;14.80;99.90
26589;DHT22;14235;48.532;8.722;2023-05-15T08:45:31;14.80;99.90
26589;DHT22;14235;48.532;8.722;2023-05-15T08:47:58;14.90;99.90
26589;DHT22;14235;48.532;8.722;2023-05-15T08:50:25;14.90;99.90
26589;DHT22;14235;48.532;8.722;2023-05-15T08:52:51;15.00;99.90
26589;DHT22;14235;48.532;8.722;2023-05-15T08:55:22;14.90;99.90
26589;DHT22;14235;48.532;8.722;2023-05-15T08:57:48;14.90;99.90
26589;DHT22;14235;48.532;8.722;2023-05-15T09:00:14;14.90;99.90
26589;DHT22;14235;48.532;8.722;2023-05-15T09:02:42;14.90;99.90
26589;DHT22;14235;48.532;8.722;2023-05-15T09:05:08;14.90;99.90
26589;DHT22;14235;48.532;8.722;2023-05-15T09:07:34;14.90;99.90
26589;DHT22;14235;48.532;8.722;2023-05-15T09:10:01;15.00;99.90
26589;DHT22;14235;48.532;8.722;2023-05-15T09:12:31;15.00;99.90
26589;DHT22;14235;48.532;8.722;2023-05-15T09:15:11;15.00;99.90
26589;DHT22;14235;48.532;8.722;2023-05-15T09:17:37;15.10;99.90
26589;DHT22;14235;48.532;8.722;2023-05-15T09:20:04;15.10;99.90
26589;DHT22;14235;48.532;8.722;2023-05-15T09:22:34;15.00;99.90
26589;DHT22;14235;48.532;8.722;2023-05-15T09:25:00;15.10;99.90
26589;DHT22;14235;48.532;8.722;2023-05-15T09:27:27;15.20;99.90
26589;DHT22;14235;48.532;8.722;2023-05-15T09:29:53;15.20;99.90
26589;DHT22;14235;48.532;8.722;2023-05-15T09:32:21;15.40;99.90
26589;DHT22;14235;48.532;8.722;2023-05-15T09:34:46;15.10;99.90
26589;DHT22;14235;48.532;8.722;2023-05-15T09:37:27;15.50;99.90
26589;DHT22;14235;48.532;8.722;2023-05-15T09:39:54;15.30;99.90
26589;DHT22;14235;48.532;8.722;2023-05-15T09:42:19;15.20;99.90
26589;DHT22;14235;48.532;8.722;2023-05-15T09:44:45;15.10;99.90
26589;DHT22;14235;48.532;8.722;2023-05-15T09:47:14;15.20;99.90
26589;DHT22;14235;48.532;8.722;2023-05-15T09:49:43;15.20;99.90
26589;DHT22;14235;48.532;8.722;2023-05-15T09:52:09;15.20;99.90
26589;DHT22;14235;48.532;8.722;2023-05-15T09:54:36;15.10;99.90
26589;DHT22;14235;48.532;8.722;2023-05-15T09:57:09;15.20;99.90
26589;DHT22;14235;48.532;8.722;2023-05-15T09:59:34;15.00;99.90
26589;DHT22;14235;48.532;8.722;2023-05-15T10:02:00;15.20;99.90
26589;DHT22;14235;48.532;8.722;2023-05-15T10:04:26;15.10;99.90
26589;DHT22;14235;48.532;8.722;2023-05-15T10:06:58;15.60;99.90
26589;DHT22;14235;48.532;8.722;2023-05-15T10:09:29;15.00;99.90
26589;DHT22;14235;48.532;8.722;2023-05-15T10:11:56;15.10;99.90
26589;DHT22;14235;48.532;8.722;2023-05-15T10:14:23;15.10;99.90
26589;DHT22;14235;48.532;8.722;2023-05-15T10:19:18;15.10;99.90
26589;DHT22;14235;48.532;8.722;2023-05-15T10:21:47;15.40;99.90
26589;DHT22;14235;48.532;8.722;2023-05-15T10:24:14;15.10;99.90
26589;DHT22;14235;48.532;8.722;2023-05-15T10:26:42;15.00;99.90
26589;DHT22;14235;48.532;8.722;2023-05-15T10:29:12;15.30;99.90
26589;DHT22;14235;48.532;8.722;2023-05-15T10:31:39;15.20;99.90
26589;DHT22;14235;48.532;8.722;2023-05-15T10:34:06;15.40;99.90
26589;DHT22;14235;48.532;8.722;2023-05-15T10:36:33;15.10;99.90
26589;DHT22;14235;48.532;8.722;2023-05-15T10:39:00;15.50;99.90
26589;DHT22;14235;48.532;8.722;2023-05-15T10:41:32;15.20;99.90
26589;DHT22;14235;48.532;8.722;2023-05-15T10:44:00;15.10;99.90
26589;DHT22;14235;48.532;8.722;2023-05-15T10:46:30;15.30;99.90
26589;DHT22;14235;48.532;8.722;2023-05-15T10:48:58;15.20;99.90
26589;DHT22;14235;48.532;8.722;2023-05-15T10:51:27;15.10;99.90
26589;DHT22;14235;48.532;8.722;2023-05-15T10:53:54;15.10;99.90
26589;DHT22;14235;48.532;8.722;2023-05-15T10:56:31;15.00;99.90
26589;DHT22;14235;48.532;8.722;2023-05-15T10:58:57;15.00;99.90
26589;DHT22;14235;48.532;8.722;2023-05-15T11:06:38;15.00;99.90
26589;DHT22;14235;48.532;8.722;2023-05-15T11:09:34;15.00;99.90
26589;DHT22;14235;48.532;8.722;2023-05-15T11:12:02;14.90;99.90
26589;DHT22;14235;48.532;8.722;2023-05-15T11:14:29;15.00;99.90
26589;DHT22;14235;48.532;8.722;2023-05-15T11:17:00;15.00;99.90
26589;DHT22;14235;48.532;8.722;2023-05-15T11:27:18;14.70;99.90
26589;DHT22;14235;48.532;8.722;2023-05-15T11:30:07;14.60;99.90
26589;DHT22;14235;48.532;8.722;2023-05-15T11:43:07;15.00;99.90
26589;DHT22;14235;48.532;8.722;2023-05-15T11:45:40;15.30;99.90
26589;DHT22;14235;48.532;8.722;2023-05-15T11:48:09;15.20;99.90
26589;DHT22;14235;48.532;8.722;2023-05-15T11:50:36;15.30;99.90
26589;DHT22;14235;48.532;8.722;2023-05-15T11:53:04;15.50;99.90
26589;DHT22;14235;48.532;8.722;2023-05-15T11:55:32;15.20;99.90
26589;DHT22;14235;48.532;8.722;2023-05-15T11:57:58;15.60;99.90
26589;DHT22;14235;48.532;8.722;2023-05-15T12:00:24;15.50;99.90
26589;DHT22;14235;48.532;8.722;2023-05-15T12:02:49;15.30;99.90
26589;DHT22;14235;48.532;8.722;2023-05-15T12:05:15;15.60;99.90
26589;DHT22;14235;48.532;8.722;2023-05-15T12:07:43;15.30;99.90
26589;DHT22;14235;48.532;8.722;2023-05-15T12:10:10;15.70;99.90
26589;DHT22;14235;48.532;8.722;2023-05-15T12:12:43;15.40;99.90
26589;DHT22;14235;48.532;8.722;2023-05-15T12:15:12;15.60;99.90
26589;DHT22;14235;48.532;8.722;2023-05-15T12:17:38;15.80;99.90
26589;DHT22;14235;48.532;8.722;2023-05-15T12:20:07;16.20;99.90
26589;DHT22;14235;48.532;8.722;2023-05-15T12:22:39;16.20;99.90
26589;DHT22;14235;48.532;8.722;2023-05-15T12:25:07;16.30;99.90
26589;DHT22;14235;48.532;8.722;2023-05-15T12:27:34;16.20;99.90
26589;DHT22;14235;48.532;8.722;2023-05-15T12:30:00;16.20;99.90
26589;DHT22;14235;48.532;8.722;2023-05-15T12:32:28;16.30;99.90
26589;DHT22;14235;48.532;8.722;2023-05-15T12:34:55;16.20;99.90
26589;DHT22;14235;48.532;8.722;2023-05-15T12:37:21;16.30;99.90
26589;DHT22;14235;48.532;8.722;2023-05-15T12:39:54;16.40;99.90
26589;DHT22;14235;48.532;8.722;2023-05-15T12:42:20;16.10;99.90
26589;DHT22;14235;48.532;8.722;2023-05-15T12:44:49;16.20;99.90
26589;DHT22;14235;48.532;8.722;2023-05-15T12:47:24;16.30;99.90
26589;DHT22;14235;48.532;8.722;2023-05-15T12:49:54;16.50;99.90
26589;DHT22;14235;48.532;8.722;2023-05-15T12:52:19;16.50;99.90
26589;DHT22;14235;48.532;8.722;2023-05-15T12:54:45;16.60;99.90
26589;DHT22;14235;48.532;8.722;2023-05-15T12:57:11;16.60;99.90
26589;DHT22;14235;48.532;8.722;2023-05-15T12:59:39;16.70;99.90
26589;DHT22;14235;48.532;8.722;2023-05-15T13:02:09;16.70;99.90
26589;DHT22;14235;48.532;8.722;2023-05-15T13:04:36;16.80;99.90
26589;DHT22;14235;48.532;8.722;2023-05-15T13:07:01;17.10;99.90
26589;DHT22;14235;48.532;8.722;2023-05-15T13:09:27;17.20;99.90
26589;DHT22;14235;48.532;8.722;2023-05-15T13:11:54;17.20;99.90
26589;DHT22;14235;48.532;8.722;2023-05-15T13:14:21;17.30;99.90
26589;DHT22;14235;48.532;8.722;2023-05-15T13:16:51;17.30;99.90
26589;DHT22;14235;48.532;8.722;2023-05-15T13:19:16;17.40;99.90
26589;DHT22;14235;48.532;8.722;2023-05-15T13:21:42;17.50;99.90
26589;DHT22;14235;48.532;8.722;2023-05-15T13:24:09;17.70;99.90
26589;DHT22;14235;48.532;8.722;2023-05-15T13:26:35;17.50;99.90
26589;DHT22;14235;48.532;8.722;2023-05-15T13:29:00;17.50;99.90
26589;DHT22;14235;48.532;8.722;2023-05-15T13:31:26;17.50;99.90
26589;DHT22;14235;48.532;8.722;2023-05-15T13:33:51;17.30;99.90
26589;DHT22;14235;48.532;8.722;2023-05-15T13:36:17;17.30;99.90
26589;DHT22;14235;48.532;8.722;2023-05-15T13:38:43;17.50;99.90
26589;DHT22;14235;48.532;8.722;2023-05-15T13:41:08;17.40;99.90
26589;DHT22;14235;48.532;8.722;2023-05-15T13:43:34;17.60;99.90
26589;DHT22;14235;48.532;8.722;2023-05-15T13:45:59;17.70;99.90
26589;DHT22;14235;48.532;8.722;2023-05-15T13:48:25;17.70;99.90
26589;DHT22;14235;48.532;8.722;2023-05-15T13:50:51;17.70;99.90
26589;DHT22;14235;48.532;8.722;2023-05-15T13:53:16;17.80;99.90
26589;DHT22;14235;48.532;8.722;2023-05-15T13:55:45;17.80;99.90
26589;DHT22;14235;48.532;8.722;2023-05-15T13:58:11;18.00;99.90
26589;DHT22;14235;48.532;8.722;2023-05-15T14:00:38;18.10;99.90
26589;DHT22;14235;48.532;8.722;2023-05-15T14:03:04;18.10;99.90
26589;DHT22;14235;48.532;8.722;2023-05-15T14:05:30;18.30;99.90
26589;DHT22;14235;48.532;8.722;2023-05-15T14:07:55;18.30;99.90
26589;DHT22;14235;48.532;8.722;2023-05-15T14:10:22;18.30;99.90
26589;DHT22;14235;48.532;8.722;2023-05-15T14:12:48;18.40;99.90
26589;DHT22;14235;48.532;8.722;2023-05-15T14:15:14;18.50;99.90
26589;DHT22;14235;48.532;8.722;2023-05-15T14:17:40;18.60;99.90
26589;DHT22;14235;48.532;8.722;2023-05-15T14:20:08;18.70;99.90
26589;DHT22;14235;48.532;8.722;2023-05-15T14:22:38;18.80;99.90
26589;DHT22;14235;48.532;8.722;2023-05-15T14:25:04;18.90;99.90
26589;DHT22;14235;48.532;8.722;2023-05-15T14:27:30;19.00;99.90
26589;DHT22;14235;48.532;8.722;2023-05-15T14:29:56;19.00;99.90
26589;DHT22;14235;48.532;8.722;2023-05-15T14:32:22;19.00;99.90
26589;DHT22;14235;48.532;8.722;2023-05-15T14:34:48;19.10;99.90
26589;DHT22;14235;48.532;8.722;2023-05-15T14:37:13;19.20;99.90
26589;DHT22;14235;48.532;8.722;2023-05-15T14:39:39;19.20;99.90
26589;DHT22;14235;48.532;8.722;2023-05-15T14:42:05;19.20;99.90
26589;DHT22;14235;48.532;8.722;2023-05-15T14:44:31;19.10;99.90
26589;DHT22;14235;48.532;8.722;2023-05-15T14:47:11;19.10;99.90
26589;DHT22;14235;48.532;8.722;2023-05-15T14:49:37;19.00;99.90
26589;DHT22;14235;48.532;8.722;2023-05-15T14:52:06;18.90;99.90
26589;DHT22;14235;48.532;8.722;2023-05-15T14:54:32;18.80;99.90
26589;DHT22;14235;48.532;8.722;2023-05-15T14:56:58;18.70;99.90
26589;DHT22;14235;48.532;8.722;2023-05-15T14:59:24;18.50;99.90
26589;DHT22;14235;48.532;8.722;2023-05-15T15:01:51;18.40;99.90
26589;DHT22;14235;48.532;8.722;2023-05-15T15:04:16;18.40;99.90
26589;DHT22;14235;48.532;8.722;2023-05-15T15:06:42;18.30;99.90
26589;DHT22;14235;48.532;8.722;2023-05-15T15:09:08;18.00;99.90
26589;DHT22;14235;48.532;8.722;2023-05-15T15:11:34;18.20;99.90
26589;DHT22;14235;48.532;8.722;2023-05-15T15:14:00;18.20;99.90
26589;DHT22;14235;48.532;8.722;2023-05-15T15:16:27;18.20;99.90
26589;DHT22;14235;48.532;8.722;2023-05-15T15:18:53;18.10;99.90
26589;DHT22;14235;48.532;8.722;2023-05-15T15:21:18;18.10;99.90
26589;DHT22;14235;48.532;8.722;2023-05-15T15:23:44;18.00;99.40
26589;DHT22;14235;48.532;8.722;2023-05-15T15:26:10;18.30;99.10
26589;DHT22;14235;48.532;8.722;2023-05-15T15:28:36;18.40;98.70
26589;DHT22;14235;48.532;8.722;2023-05-15T15:31:01;18.60;98.10
26589;DHT22;14235;48.532;8.722;2023-05-15T15:33:27;19.00;98.50
26589;DHT22;14235;48.532;8.722;2023-05-15T15:35:54;19.40;95.70
26589;DHT22;14235;48.532;8.722;2023-05-15T15:38:20;19.80;95.50
26589;DHT22;14235;48.532;8.722;2023-05-15T15:40:45;20.30;93.70
26589;DHT22;14235;48.532;8.722;2023-05-15T15:43:11;20.60;93.40
26589;DHT22;14235;48.532;8.722;2023-05-15T15:45:36;20.90;91.60
26589;DHT22;14235;48.532;8.722;2023-05-15T15:48:02;21.20;92.40
26589;DHT22;14235;48.532;8.722;2023-05-15T15:50:28;21.30;94.00
26589;DHT22;14235;48.532;8.722;2023-05-15T15:52:54;21.20;92.20
26589;DHT22;14235;48.532;8.722;2023-05-15T15:55:19;21.10;91.90
26589;DHT22;14235;48.532;8.722;2023-05-15T15:57:45;21.00;89.50
26589;DHT22;14235;48.532;8.722;2023-05-15T16:00:11;20.80;89.40
26589;DHT22;14235;48.532;8.722;2023-05-15T16:02:39;20.70;89.30
26589;DHT22;14235;48.532;8.722;2023-05-15T16:05:05;20.30;89.10
26589;DHT22;14235;48.532;8.722;2023-05-15T16:07:32;20.00;89.60
26589;DHT22;14235;48.532;8.722;2023-05-15T16:10:01;19.80;88.70